Time;durP1;ratioP1;P1;durP2;ratioP2;P2;SDS_P1;SDS_P2;PMS_P1;PMS_P2;Temp;Humidity;BMP_temperature;BMP_pressure;BME280_temperature;BME280_humidity;BME280_pressure;Samples;Min_cycle;Max_cycle;Signal;HPM_P1;HPM_P2
2023/12/05 00:00:21;;;;;;;12.40;8.60;;;7.00;68.20;;;;;;5039005;28;20196;-54
2023/12/05 00:02:47;;;;;;;12.53;7.60;;;7.20;66.70;;;;;;5042323;28;20688;-55
2023/12/05 00:05:13;;;;;;;8.93;6.33;;;7.20;66.40;;;;;;5040416;28;20471;-55
2023/12/05 00:07:38;;;;;;;11.07;7.20;;;7.00;66.10;;;;;;5041485;28;20184;-54
2023/12/05 00:10:05;;;;;;;10.90;6.33;;;6.70;67.70;;;;;;5042950;28;20777;-56
2023/12/05 00:12:30;;;;;;;7.30;6.40;;;6.90;68.60;;;;;;5037679;28;20439;-57
2023/12/05 00:14:56;;;;;;;9.60;6.17;;;6.90;67.80;;;;;;5040448;28;20973;-54
2023/12/05 00:17:22;;;;;;;9.83;6.30;;;7.10;67.70;;;;;;5037677;28;20185;-54
2023/12/05 00:19:47;;;;;;;8.90;5.87;;;7.10;67.50;;;;;;5039725;28;20228;-52
2023/12/05 00:22:13;;;;;;;7.80;5.87;;;7.30;67.00;;;;;;5045940;28;20799;-57
2023/12/05 00:24:38;;;;;;;6.97;5.60;;;7.10;67.50;;;;;;5041893;28;20212;-54
2023/12/05 00:27:04;;;;;;;7.30;4.97;;;6.90;68.40;;;;;;5044210;28;20201;-54
2023/12/05 00:29:30;;;;;;;5.57;4.87;;;6.90;68.70;;;;;;5039948;28;20287;-55
2023/12/05 00:31:55;;;;;;;9.40;6.00;;;6.90;69.20;;;;;;5037459;28;20311;-56
2023/12/05 00:34:21;;;;;;;9.13;6.80;;;7.00;69.50;;;;;;5039377;28;20234;-56
2023/12/05 00:36:46;;;;;;;11.93;7.83;;;7.00;69.10;;;;;;5043405;28;20184;-54
2023/12/05 00:39:12;;;;;;;8.97;7.30;;;7.30;68.60;;;;;;5043212;28;20212;-55
2023/12/05 00:41:37;;;;;;;12.73;6.80;;;7.40;67.80;;;;;;5040993;28;20645;-52
2023/12/05 00:44:03;;;;;;;8.47;7.30;;;7.20;68.10;;;;;;5042473;28;20821;-56
2023/12/05 00:46:28;;;;;;;9.83;7.60;;;7.20;68.20;;;;;;5039327;28;20680;-57
2023/12/05 00:48:54;;;;;;;9.67;7.37;;;7.20;68.70;;;;;;5045315;28;20216;-57
2023/12/05 00:51:20;;;;;;;9.90;6.33;;;7.40;67.90;;;;;;5039031;28;20299;-53
2023/12/05 00:53:45;;;;;;;12.10;5.93;;;6.90;68.60;;;;;;5044245;28;20181;-53
2023/12/05 00:56:11;;;;;;;11.40;6.40;;;6.60;70.80;;;;;;5040962;28;20199;-56
2023/12/05 00:58:37;;;;;;;8.47;6.50;;;6.50;71.80;;;;;;5039033;28;20243;-54
2023/12/05 01:01:03;;;;;;;9.37;6.90;;;6.60;71.80;;;;;;5043329;28;20469;-55
2023/12/05 01:03:28;;;;;;;8.07;5.43;;;6.80;71.00;;;;;;5041731;28;20979;-54
2023/12/05 01:05:54;;;;;;;6.90;6.00;;;6.70;71.10;;;;;;5044994;28;20227;-55
2023/12/05 01:08:20;;;;;;;9.50;6.23;;;6.80;70.80;;;;;;5044901;28;20189;-52
2023/12/05 01:10:45;;;;;;;7.80;6.33;;;6.60;71.10;;;;;;5047698;28;20618;-54
2023/12/05 01:13:11;;;;;;;8.70;5.90;;;6.40;72.20;;;;;;5041598;28;20281;-53
2023/12/05 01:15:36;;;;;;;8.80;6.47;;;6.30;73.20;;;;;;5040629;28;20189;-53
2023/12/05 01:18:02;;;;;;;7.60;5.53;;;6.30;73.70;;;;;;5042485;28;20965;-52
2023/12/05 01:20:28;;;;;;;7.80;5.87;;;6.20;73.30;;;;;;5042047;28;20219;-53
2023/12/05 01:22:54;;;;;;;8.30;6.10;;;6.20;74.60;;;;;;5042366;28;21903;-55
2023/12/05 01:25:20;;;;;;;8.57;5.83;;;6.30;74.30;;;;;;5042433;28;20192;-53
2023/12/05 01:27:45;;;;;;;7.67;6.77;;;6.40;74.00;;;;;;5039376;28;20188;-53
2023/12/05 01:30:11;;;;;;;7.80;5.33;;;6.40;73.70;;;;;;5038774;28;20718;-53
2023/12/05 01:32:37;;;;;;;9.63;6.50;;;6.50;73.40;;;;;;5040645;28;20180;-55
2023/12/05 01:35:03;;;;;;;8.37;6.10;;;6.50;73.30;;;;;;5038204;28;20431;-54
2023/12/05 01:37:28;;;;;;;7.70;5.20;;;6.40;73.30;;;;;;5037357;28;20203;-54
2023/12/05 01:39:54;;;;;;;8.47;5.83;;;6.50;73.50;;;;;;5040154;28;22315;-51
2023/12/05 01:42:19;;;;;;;6.27;5.60;;;6.80;72.60;;;;;;5041213;28;20220;-53
2023/12/05 01:44:45;;;;;;;7.47;6.17;;;6.80;71.70;;;;;;5038934;28;20184;-54
2023/12/05 01:47:12;;;;;;;8.00;6.00;;;6.70;72.60;;;;;;5038419;28;20263;-55
2023/12/05 01:49:40;;;;;;;6.70;5.63;;;6.80;72.00;;;;;;5039647;28;20631;-55
2023/12/05 01:52:06;;;;;;;8.17;6.33;;;7.00;71.10;;;;;;5042188;28;20478;-54
2023/12/05 01:54:32;;;;;;;12.50;6.17;;;7.00;70.60;;;;;;5042127;28;20442;-55
2023/12/05 01:56:59;;;;;;;7.87;5.80;;;7.00;71.40;;;;;;5038223;28;20185;-54
2023/12/05 01:59:25;;;;;;;8.60;5.80;;;7.10;70.60;;;;;;5040924;28;20466;-52
2023/12/05 02:01:52;;;;;;;7.90;5.03;;;7.20;70.90;;;;;;5042353;28;20463;-56
2023/12/05 02:04:18;;;;;;;5.43;3.90;;;7.20;70.10;;;;;;5041977;28;20950;-53
2023/12/05 02:06:44;;;;;;;4.80;4.30;;;7.10;70.90;;;;;;5048868;28;20928;-56
2023/12/05 02:09:16;;;;;;;5.40;4.70;;;7.20;71.10;;;;;;5047312;28;20524;-52
2023/12/05 02:11:42;;;;;;;4.70;3.67;;;7.10;70.50;;;;;;5045671;28;20486;-52
2023/12/05 02:14:09;;;;;;;6.80;5.47;;;6.80;72.70;;;;;;5045431;28;21049;-53
2023/12/05 02:16:36;;;;;;;6.33;4.60;;;6.80;72.80;;;;;;5037360;28;20980;-56
2023/12/05 02:19:35;;;;;;;5.00;4.20;;;7.00;72.50;;;;;;5044983;28;20462;-52
2023/12/05 02:22:07;;;;;;;12.67;4.97;;;7.50;71.10;;;;;;5044401;28;20439;-53
2023/12/05 02:24:50;;;;;;;6.93;4.90;;;7.40;69.80;;;;;;5043912;28;20452;-51
2023/12/05 02:27:24;;;;;;;4.37;3.97;;;7.60;69.50;;;;;;5045779;28;20513;-57
2023/12/05 02:29:51;;;;;;;6.30;4.60;;;7.70;68.80;;;;;;5027821;28;20478;-54
2023/12/05 02:32:17;;;;;;;4.93;3.90;;;7.50;68.80;;;;;;5037904;28;20974;-53
2023/12/05 02:34:43;;;;;;;6.03;4.17;;;7.60;69.30;;;;;;5042757;28;20451;-54
2023/12/05 02:37:22;;;;;;;4.70;3.97;;;7.80;69.00;;;;;;5041093;28;21018;-55
2023/12/05 02:40:13;;;;;;;3.83;3.40;;;8.00;67.80;;;;;;5041398;28;20462;-54
2023/12/05 02:42:41;;;;;;;4.70;3.70;;;8.10;67.20;;;;;;5041513;28;20446;-54
2023/12/05 02:45:14;;;;;;;3.80;3.50;;;8.00;67.00;;;;;;5039690;28;20493;-56
2023/12/05 02:47:40;;;;;;;4.63;3.80;;;7.80;67.40;;;;;;5041140;28;20494;-54
2023/12/05 02:50:06;;;;;;;5.00;4.03;;;7.80;67.90;;;;;;5038650;28;20541;-55
2023/12/05 02:52:31;;;;;;;5.63;4.43;;;7.60;68.40;;;;;;5042946;28;20477;-54
2023/12/05 02:54:57;;;;;;;3.83;3.43;;;7.60;68.80;;;;;;5039733;28;20473;-52
2023/12/05 02:57:23;;;;;;;5.97;4.77;;;7.80;68.40;;;;;;5046217;28;20184;-55
2023/12/05 02:59:48;;;;;;;4.37;3.97;;;7.70;67.80;;;;;;5044575;28;20328;-56
2023/12/05 03:02:14;;;;;;;4.43;3.70;;;7.60;68.50;;;;;;5044659;28;20189;-58
2023/12/05 03:04:39;;;;;;;4.53;3.60;;;7.70;68.00;;;;;;5041784;28;20184;-58
2023/12/05 03:07:05;;;;;;;5.70;3.83;;;7.70;67.50;;;;;;5047594;28;20196;-53
2023/12/05 03:09:30;;;;;;;5.00;3.90;;;7.80;67.00;;;;;;5047551;28;20291;-52
2023/12/05 03:11:56;;;;;;;5.50;4.10;;;7.80;66.90;;;;;;5040735;28;20243;-55
2023/12/05 03:14:21;;;;;;;5.20;4.37;;;7.60;67.00;;;;;;5045658;28;20307;-54
2023/12/05 03:16:47;;;;;;;4.30;3.70;;;7.40;67.70;;;;;;5045296;28;20192;-53
2023/12/05 03:19:12;;;;;;;5.30;4.00;;;7.40;67.90;;;;;;5040413;28;20209;-55
2023/12/05 03:21:38;;;;;;;5.50;4.67;;;7.50;67.90;;;;;;5046554;28;20193;-55
2023/12/05 03:24:04;;;;;;;5.10;4.20;;;7.50;68.00;;;;;;5047768;28;20225;-55
2023/12/05 03:26:29;;;;;;;6.63;4.57;;;7.30;68.60;;;;;;5045320;28;20185;-53
2023/12/05 03:28:55;;;;;;;5.80;4.63;;;7.30;69.00;;;;;;5038350;28;20498;-55
2023/12/05 03:31:21;;;;;;;6.10;4.80;;;7.10;69.60;;;;;;5039604;28;20232;-55
2023/12/05 03:33:46;;;;;;;5.40;4.90;;;7.10;70.20;;;;;;5041968;28;20189;-55
2023/12/05 03:36:12;;;;;;;7.83;4.87;;;7.20;70.10;;;;;;5045687;28;20272;-50
2023/12/05 03:38:38;;;;;;;6.10;4.87;;;7.30;69.60;;;;;;5044180;28;20208;-53
2023/12/05 03:41:05;;;;;;;4.73;4.00;;;7.30;69.60;;;;;;5040386;28;20235;-54
2023/12/05 03:43:30;;;;;;;7.87;4.97;;;7.50;68.90;;;;;;5045308;28;20446;-53
2023/12/05 03:45:56;;;;;;;10.07;6.20;;;7.70;68.30;;;;;;5044677;28;20534;-53
2023/12/05 03:48:21;;;;;;;7.77;5.43;;;7.90;67.60;;;;;;5040973;28;20184;-53
2023/12/05 03:50:47;;;;;;;6.20;5.40;;;8.00;66.60;;;;;;5045061;28;20700;-51
2023/12/05 03:53:13;;;;;;;7.10;5.40;;;8.00;66.00;;;;;;5041340;28;20216;-52
2023/12/05 03:55:39;;;;;;;7.13;5.40;;;8.10;65.20;;;;;;5039090;28;20231;-53
2023/12/05 03:58:04;;;;;;;5.57;4.93;;;8.00;64.90;;;;;;5041450;28;20216;-53
2023/12/05 04:00:30;;;;;;;6.57;5.50;;;7.70;65.10;;;;;;5042074;28;20506;-54
2023/12/05 04:02:56;;;;;;;6.53;4.83;;;7.50;66.40;;;;;;5046938;28;20196;-52
2023/12/05 04:05:21;;;;;;;7.13;5.40;;;7.50;66.40;;;;;;5041796;28;20184;-54
2023/12/05 04:07:47;;;;;;;7.80;4.50;;;7.10;67.00;;;;;;5044013;28;20189;-55
2023/12/05 04:10:13;;;;;;;7.20;4.40;;;7.00;68.70;;;;;;5038448;28;20703;-55
2023/12/05 04:12:39;;;;;;;5.23;4.10;;;7.00;69.40;;;;;;5042070;28;20285;-54
2023/12/05 04:15:05;;;;;;;7.00;4.63;;;7.00;69.90;;;;;;5046402;28;20729;-54
2023/12/05 04:17:31;;;;;;;5.70;4.40;;;7.30;69.10;;;;;;5045055;28;20466;-53
2023/12/05 04:19:57;;;;;;;5.10;4.50;;;7.50;68.00;;;;;;5042086;28;20529;-53
2023/12/05 04:22:22;;;;;;;5.10;4.23;;;7.70;67.50;;;;;;5041677;28;20474;-53
2023/12/05 04:24:48;;;;;;;6.03;4.53;;;7.80;67.00;;;;;;5044880;28;20661;-52
2023/12/05 04:27:14;;;;;;;4.37;3.90;;;7.90;66.50;;;;;;5040373;28;20196;-54
2023/12/05 04:29:39;;;;;;;5.53;4.83;;;8.00;66.20;;;;;;5044508;28;20204;-57
2023/12/05 04:32:06;;;;;;;6.80;4.50;;;8.00;65.80;;;;;;5046177;28;20262;-58
2023/12/05 04:34:32;;;;;;;8.23;5.23;;;8.00;65.50;;;;;;5045771;28;20184;-57
2023/12/05 04:36:58;;;;;;;6.97;5.20;;;8.00;65.20;;;;;;5043178;28;20466;-54
2023/12/05 04:39:23;;;;;;;4.73;4.00;;;7.90;64.60;;;;;;5043485;28;20459;-58
2023/12/05 04:41:49;;;;;;;8.47;5.23;;;7.90;64.70;;;;;;5045076;28;20206;-54
2023/12/05 04:44:15;;;;;;;7.73;5.40;;;7.90;64.80;;;;;;5039632;28;20272;-56
2023/12/05 04:46:41;;;;;;;6.50;4.57;;;7.60;65.30;;;;;;5037703;28;21144;-57
2023/12/05 04:49:07;;;;;;;4.53;3.50;;;7.50;66.10;;;;;;5041198;28;20459;-55
2023/12/05 04:51:32;;;;;;;6.00;4.70;;;7.60;66.30;;;;;;5037351;28;20551;-55
2023/12/05 04:53:58;;;;;;;5.10;4.10;;;7.60;66.60;;;;;;5041761;28;20730;-59
2023/12/05 04:56:23;;;;;;;5.20;4.40;;;7.40;66.70;;;;;;5040164;28;20188;-56
2023/12/05 04:58:49;;;;;;;6.93;4.77;;;7.30;67.90;;;;;;5040064;28;20214;-54
2023/12/05 05:01:15;;;;;;;4.90;4.23;;;7.20;68.10;;;;;;5039903;28;20193;-53
2023/12/05 05:03:40;;;;;;;5.33;4.50;;;7.10;68.50;;;;;;5040251;28;20559;-55
2023/12/05 05:06:06;;;;;;;4.43;3.40;;;7.00;69.20;;;;;;5042559;28;20197;-53
2023/12/05 05:08:32;;;;;;;4.27;3.30;;;7.00;70.90;;;;;;5043544;28;20177;-55
2023/12/05 05:10:57;;;;;;;3.97;3.00;;;7.30;70.20;;;;;;5041994;28;20676;-57
2023/12/05 05:13:23;;;;;;;4.50;4.03;;;7.50;69.50;;;;;;5045830;28;20181;-53
2023/12/05 05:15:48;;;;;;;5.47;4.30;;;7.50;68.80;;;;;;5043127;28;20833;-56
2023/12/05 05:18:14;;;;;;;7.90;5.40;;;7.70;67.90;;;;;;5044767;28;20200;-54
2023/12/05 05:20:39;;;;;;;4.73;4.20;;;7.70;66.70;;;;;;5040967;28;20274;-53
2023/12/05 05:23:06;;;;;;;7.53;4.80;;;7.60;66.10;;;;;;5039606;28;20603;-56
2023/12/05 05:25:31;;;;;;;5.13;4.57;;;7.40;67.10;;;;;;5042879;28;20181;-53
2023/12/05 05:27:57;;;;;;;5.17;4.53;;;7.40;66.60;;;;;;5041144;28;20438;-56
2023/12/05 05:30:22;;;;;;;6.13;4.47;;;7.20;67.00;;;;;;5040297;28;20270;-56
2023/12/05 05:32:48;;;;;;;6.00;4.30;;;7.10;67.70;;;;;;5039313;28;20690;-57
2023/12/05 05:35:13;;;;;;;7.90;4.13;;;6.90;68.70;;;;;;5043478;28;20598;-57
2023/12/05 05:37:39;;;;;;;4.80;3.10;;;6.80;69.70;;;;;;5041415;28;20231;-52
2023/12/05 05:40:06;;;;;;;4.30;3.57;;;6.80;70.60;;;;;;5049974;28;20238;-55
2023/12/05 05:42:32;;;;;;;5.40;3.40;;;6.80;71.80;;;;;;5043261;28;20197;-55
2023/12/05 05:44:58;;;;;;;4.37;3.80;;;7.10;71.70;;;;;;5048976;28;20791;-54
2023/12/05 05:47:24;;;;;;;5.13;3.20;;;7.40;70.50;;;;;;5045023;28;20203;-53
2023/12/05 05:49:49;;;;;;;7.47;3.70;;;7.20;70.50;;;;;;5045484;28;20216;-52
2023/12/05 05:52:15;;;;;;;4.33;3.20;;;7.40;70.30;;;;;;5043222;28;21008;-56
2023/12/05 05:54:41;;;;;;;4.80;3.50;;;7.50;69.20;;;;;;5048031;28;20185;-54
2023/12/05 05:57:07;;;;;;;5.10;3.47;;;7.60;68.40;;;;;;5046878;28;20196;-57
2023/12/05 05:59:32;;;;;;;4.40;3.27;;;7.70;68.70;;;;;;5040524;28;20216;-54
2023/12/05 06:01:58;;;;;;;4.07;3.50;;;7.70;67.60;;;;;;5046050;28;20188;-58
2023/12/05 06:04:24;;;;;;;4.67;3.10;;;7.60;67.50;;;;;;5042320;28;20335;-54
2023/12/05 06:06:50;;;;;;;3.13;2.90;;;7.60;68.40;;;;;;5046403;28;20589;-52
2023/12/05 06:09:15;;;;;;;3.57;3.20;;;7.50;68.30;;;;;;5042940;28;20680;-55
2023/12/05 06:11:42;;;;;;;5.43;3.70;;;7.20;69.30;;;;;;5044768;28;20687;-55
2023/12/05 06:14:08;;;;;;;8.13;4.33;;;7.10;70.20;;;;;;5046329;28;21191;-55
2023/12/05 06:16:33;;;;;;;4.93;3.83;;;7.10;70.20;;;;;;5044452;28;20443;-57
2023/12/05 06:18:59;;;;;;;5.47;4.17;;;7.40;71.90;;;;;;5044655;28;20608;-54
2023/12/05 06:21:24;;;;;;;3.57;2.90;;;7.50;71.40;;;;;;5041494;28;20197;-56
2023/12/05 06:23:50;;;;;;;6.80;6.00;;;7.70;71.20;;;;;;5046740;28;20192;-55
2023/12/05 06:26:15;;;;;;;8.03;4.50;;;7.60;69.30;;;;;;5044340;28;20187;-57
2023/12/05 06:28:41;;;;;;;5.60;4.63;;;7.80;69.00;;;;;;5045899;28;20695;-55
2023/12/05 06:31:06;;;;;;;3.47;3.10;;;8.10;67.50;;;;;;5043206;28;20307;-56
2023/12/05 06:33:32;;;;;;;5.53;4.33;;;8.10;68.50;;;;;;5046282;28;20981;-56
2023/12/05 06:35:58;;;;;;;3.93;2.87;;;8.30;67.50;;;;;;5046860;28;20344;-56
2023/12/05 06:38:23;;;;;;;5.37;4.70;;;8.40;65.80;;;;;;5044669;28;20883;-56
2023/12/05 06:40:49;;;;;;;5.40;4.50;;;8.40;65.00;;;;;;5041276;28;20188;-55
2023/12/05 06:43:14;;;;;;;6.33;4.10;;;8.50;64.60;;;;;;5042323;28;20218;-57
2023/12/05 06:45:40;;;;;;;6.27;4.73;;;8.50;63.40;;;;;;5046429;28;20181;-54
2023/12/05 06:48:06;;;;;;;6.20;3.30;;;8.30;64.20;;;;;;5045798;28;20180;-54
2023/12/05 06:50:31;;;;;;;3.63;3.33;;;8.40;65.00;;;;;;5044451;28;20291;-55
2023/12/05 06:52:57;;;;;;;6.30;4.57;;;8.50;64.40;;;;;;5044826;28;20199;-57
2023/12/05 06:55:26;;;;;;;3.20;2.73;;;8.70;63.90;;;;;;5040860;28;20181;-55
2023/12/05 06:57:52;;;;;;;3.43;3.10;;;8.90;63.40;;;;;;5044232;28;20299;-55
2023/12/05 07:00:20;;;;;;;4.77;3.60;;;9.10;62.60;;;;;;5042901;28;20979;-54
2023/12/05 07:02:46;;;;;;;8.13;4.30;;;9.30;61.70;;;;;;5043065;28;20272;-55
2023/12/05 07:05:12;;;;;;;5.60;3.47;;;9.30;61.40;;;;;;5045164;28;20530;-56
2023/12/05 07:07:37;;;;;;;4.30;3.47;;;9.40;62.20;;;;;;5044154;28;20250;-53
2023/12/05 07:10:05;;;;;;;4.03;3.43;;;9.30;60.70;;;;;;5043486;28;20204;-54
2023/12/05 07:12:32;;;;;;;6.63;3.10;;;9.10;60.50;;;;;;5037466;28;20211;-56
2023/12/05 07:14:57;;;;;;;4.23;3.27;;;8.90;60.20;;;;;;5043400;28;20470;-54
2023/12/05 07:17:23;;;;;;;5.57;3.23;;;8.80;61.20;;;;;;5041965;28;20484;-56
2023/12/05 07:19:48;;;;;;;5.00;2.63;;;8.60;62.80;;;;;;5040243;28;20221;-53
2023/12/05 07:22:14;;;;;;;4.33;2.97;;;8.50;63.70;;;;;;5044420;28;20197;-54
2023/12/05 07:24:40;;;;;;;4.40;2.67;;;8.60;63.70;;;;;;5045637;28;20531;-57
2023/12/05 07:27:05;;;;;;;7.93;3.40;;;8.70;63.30;;;;;;5041566;28;20177;-53
2023/12/05 07:29:31;;;;;;;6.93;3.47;;;8.50;63.20;;;;;;5045140;28;20231;-55
2023/12/05 07:31:56;;;;;;;2.97;2.67;;;8.40;63.60;;;;;;5046218;28;20208;-54
2023/12/05 07:34:22;;;;;;;4.10;2.90;;;8.10;64.60;;;;;;5041414;28;20725;-53
2023/12/05 07:36:47;;;;;;;5.23;2.73;;;8.20;65.00;;;;;;5045952;28;20250;-54
2023/12/05 07:39:13;;;;;;;4.13;2.87;;;8.30;64.50;;;;;;5043821;28;20204;-53
2023/12/05 07:41:40;;;;;;;3.40;2.33;;;8.20;65.20;;;;;;5038354;28;20187;-52
2023/12/05 07:44:06;;;;;;;3.90;3.30;;;8.30;64.50;;;;;;5047867;28;20192;-54
2023/12/05 07:46:35;;;;;;;5.63;2.90;;;8.10;64.80;;;;;;5046998;28;20436;-52
2023/12/05 07:49:02;;;;;;;6.80;3.67;;;7.70;65.60;;;;;;5043634;28;20487;-52
2023/12/05 07:51:27;;;;;;;3.30;3.00;;;7.60;67.20;;;;;;5043385;28;20479;-53
2023/12/05 07:53:53;;;;;;;4.47;3.10;;;7.70;67.50;;;;;;5041662;28;20876;-54
2023/12/05 07:56:19;;;;;;;5.33;3.60;;;7.90;67.30;;;;;;5048097;28;20192;-52
2023/12/05 07:58:45;;;;;;;4.53;2.83;;;8.20;66.10;;;;;;5041366;28;20597;-52
2023/12/05 08:01:11;;;;;;;3.27;2.97;;;8.50;65.90;;;;;;5043963;28;20180;-53
2023/12/05 08:03:36;;;;;;;3.10;2.40;;;8.70;64.80;;;;;;5040764;28;20205;-53
2023/12/05 08:06:02;;;;;;;3.17;2.50;;;8.50;64.60;;;;;;5044331;28;20475;-53
2023/12/05 08:08:31;;;;;;;3.10;2.67;;;8.40;66.20;;;;;;5044275;28;20192;-54
2023/12/05 08:10:58;;;;;;;4.70;2.60;;;8.50;65.80;;;;;;5043614;28;20216;-54
2023/12/05 08:13:24;;;;;;;3.00;2.70;;;8.50;66.30;;;;;;5043556;28;20439;-53
2023/12/05 08:15:49;;;;;;;4.77;3.00;;;8.80;66.40;;;;;;5042603;28;20502;-53
2023/12/05 08:18:15;;;;;;;4.30;2.70;;;8.90;66.20;;;;;;5034675;28;20199;-56
2023/12/05 08:20:40;;;;;;;2.87;2.50;;;8.90;65.50;;;;;;5039497;28;20308;-54
2023/12/05 08:23:06;;;;;;;3.40;2.47;;;8.90;64.80;;;;;;5040872;28;20188;-55
2023/12/05 08:25:31;;;;;;;2.07;1.83;;;9.10;64.90;;;;;;5043823;28;20603;-55
2023/12/05 08:27:57;;;;;;;3.13;2.33;;;9.40;65.10;;;;;;5040444;28;20197;-55
2023/12/05 08:30:22;;;;;;;3.40;2.80;;;9.40;64.00;;;;;;5039734;28;20230;-55
2023/12/05 08:32:48;;;;;;;3.93;2.90;;;9.50;63.70;;;;;;5044199;28;20292;-57
2023/12/05 08:35:13;;;;;;;3.20;2.50;;;9.70;63.70;;;;;;5045244;28;20200;-54
2023/12/05 08:37:40;;;;;;;4.70;3.07;;;9.50;62.50;;;;;;5045787;28;20203;-54
2023/12/05 08:40:06;;;;;;;5.30;3.40;;;9.80;62.80;;;;;;5045792;28;20208;-57
2023/12/05 08:42:31;;;;;;;3.30;2.87;;;9.90;62.70;;;;;;5042757;28;20505;-53
2023/12/05 08:44:57;;;;;;;3.27;2.83;;;10.00;61.80;;;;;;5046536;28;21115;-54
2023/12/05 08:47:22;;;;;;;3.60;2.70;;;9.90;62.30;;;;;;5037964;28;20648;-55
2023/12/05 08:49:48;;;;;;;4.70;2.93;;;9.70;61.60;;;;;;5044740;28;20234;-55
2023/12/05 08:52:13;;;;;;;4.30;3.03;;;10.00;60.60;;;;;;5040085;28;20235;-53
2023/12/05 08:54:39;;;;;;;4.37;2.70;;;10.30;60.30;;;;;;5039703;28;20212;-54
2023/12/05 08:57:05;;;;;;;3.80;2.43;;;10.30;61.10;;;;;;5048175;28;20195;-55
2023/12/05 08:59:30;;;;;;;3.40;2.20;;;10.50;60.50;;;;;;5044725;28;20201;-57
2023/12/05 09:01:56;;;;;;;2.40;2.20;;;10.70;60.70;;;;;;5047894;28;20185;-54
2023/12/05 09:04:21;;;;;;;2.93;2.23;;;10.90;59.70;;;;;;5041390;28;20192;-54
2023/12/05 09:06:47;;;;;;;5.60;2.90;;;11.00;59.50;;;;;;5044733;28;20180;-54
2023/12/05 09:09:12;;;;;;;6.43;2.90;;;11.10;57.60;;;;;;5044885;28;20205;-56
2023/12/05 09:11:38;;;;;;;2.20;2.00;;;11.20;57.50;;;;;;5046152;28;20216;-56
2023/12/05 09:14:05;;;;;;;3.63;1.85;;;11.40;57.30;;;;;;5039606;28;20439;-55
2023/12/05 09:16:31;;;;;;;2.97;1.87;;;11.60;57.10;;;;;;5046952;28;20195;-57
2023/12/05 09:18:57;;;;;;;3.33;2.17;;;11.70;56.40;;;;;;5049563;28;20439;-54
2023/12/05 09:21:22;;;;;;;3.40;2.67;;;12.00;57.70;;;;;;5047599;28;20297;-57
2023/12/05 09:23:48;;;;;;;3.30;1.80;;;12.10;55.40;;;;;;5048821;28;20192;-58
2023/12/05 09:26:14;;;;;;;6.23;2.10;;;12.40;55.80;;;;;;5043914;28;20189;-56
2023/12/05 09:28:40;;;;;;;2.03;1.83;;;12.50;54.60;;;;;;5039423;28;20278;-56
2023/12/05 09:31:06;;;;;;;2.50;1.80;;;12.50;53.30;;;;;;5038834;28;20486;-57
2023/12/05 09:33:32;;;;;;;5.17;1.93;;;12.40;53.10;;;;;;5049768;28;20744;-57
2023/12/05 09:35:58;;;;;;;2.37;1.80;;;12.50;54.00;;;;;;5046046;28;20188;-57
2023/12/05 09:38:24;;;;;;;3.77;2.07;;;12.80;52.60;;;;;;5043877;28;20652;-55
2023/12/05 09:40:51;;;;;;;3.40;2.20;;;13.10;52.60;;;;;;5038124;28;20490;-58
2023/12/05 09:43:21;;;;;;;2.93;1.97;;;13.50;52.60;;;;;;5047038;28;20969;-59
2023/12/05 09:45:50;;;;;;;5.93;3.00;;;14.00;51.50;;;;;;5047533;28;20475;-59
2023/12/05 09:48:18;;;;;;;3.63;1.80;;;14.20;50.60;;;;;;5049259;28;20445;-55
2023/12/05 09:50:44;;;;;;;3.87;2.10;;;14.40;49.40;;;;;;5045258;28;20478;-59
2023/12/05 09:53:11;;;;;;;2.03;1.80;;;14.60;49.40;;;;;;5047192;28;20453;-59
2023/12/05 09:55:39;;;;;;;3.50;1.93;;;14.70;49.20;;;;;;5045192;28;20186;-57
2023/12/05 09:58:06;;;;;;;3.80;2.03;;;14.80;48.50;;;;;;5045896;28;20439;-58
2023/12/05 10:00:31;;;;;;;3.00;2.17;;;14.50;48.40;;;;;;5047758;28;20541;-58
2023/12/05 10:03:01;;;;;;;3.80;2.33;;;14.20;48.80;;;;;;5042573;28;20521;-58
2023/12/05 10:05:29;;;;;;;2.60;1.93;;;14.20;49.30;;;;;;5047358;28;20200;-57
2023/12/05 10:07:56;;;;;;;3.50;1.87;;;14.30;49.60;;;;;;5045516;28;21189;-58
2023/12/05 10:10:22;;;;;;;2.40;2.20;;;14.40;49.40;;;;;;5046173;28;20473;-56
2023/12/05 10:12:48;;;;;;;4.47;2.43;;;14.70;49.10;;;;;;5040404;28;20452;-55
2023/12/05 10:15:15;;;;;;;7.83;2.70;;;15.00;48.60;;;;;;5046080;28;20439;-57
2023/12/05 10:17:41;;;;;;;13.40;3.30;;;15.00;46.90;;;;;;5041650;28;20468;-55
2023/12/05 10:20:07;;;;;;;5.10;2.00;;;15.20;47.40;;;;;;5045416;28;20482;-58
2023/12/05 10:22:33;;;;;;;2.83;1.90;;;15.50;47.10;;;;;;5046338;28;20192;-56
2023/12/05 10:24:59;;;;;;;1.63;1.40;;;15.70;46.80;;;;;;5046252;28;20512;-58
2023/12/05 10:27:26;;;;;;;3.17;2.07;;;15.80;46.30;;;;;;5047975;28;20185;-57
2023/12/05 10:29:51;;;;;;;3.90;2.10;;;16.10;46.30;;;;;;5047470;28;20299;-56
2023/12/05 10:32:25;;;;;;;3.60;2.73;;;16.10;45.50;;;;;;5042810;28;20589;-55
2023/12/05 10:34:52;;;;;;;3.47;1.93;;;16.20;45.80;;;;;;5047452;28;20287;-54
2023/12/05 10:37:22;;;;;;;3.87;1.70;;;16.30;45.70;;;;;;5044012;28;20492;-54
2023/12/05 10:39:52;;;;;;;2.00;1.73;;;16.40;45.70;;;;;;5046418;28;20520;-57
2023/12/05 10:42:21;;;;;;;2.87;1.70;;;16.60;46.20;;;;;;5044680;28;20439;-55
2023/12/05 10:44:47;;;;;;;3.03;1.97;;;16.70;44.90;;;;;;5044507;28;20496;-57
2023/12/05 10:47:13;;;;;;;2.40;1.73;;;16.70;44.10;;;;;;5045074;28;20447;-55
2023/12/05 10:49:42;;;;;;;2.57;1.73;;;16.70;44.40;;;;;;5048830;28;20582;-57
2023/12/05 10:52:16;;;;;;;1.90;1.50;;;16.80;44.40;;;;;;5045399;28;21076;-56
2023/12/05 10:54:44;;;;;;;3.47;1.83;;;16.80;44.00;;;;;;5043037;28;20442;-57
2023/12/05 10:57:09;;;;;;;2.60;1.87;;;16.90;44.30;;;;;;5041994;28;21149;-54
2023/12/05 10:59:42;;;;;;;2.00;1.63;;;17.10;43.60;;;;;;5043061;28;20448;-54
2023/12/05 11:02:15;;;;;;;2.27;1.70;;;17.30;43.20;;;;;;5044712;28;20234;-59
2023/12/05 11:04:41;;;;;;;2.50;1.70;;;17.10;43.80;;;;;;5047477;28;20447;-59
2023/12/05 11:07:11;;;;;;;2.40;1.77;;;17.20;44.10;;;;;;5045135;28;20419;-58
2023/12/05 11:09:41;;;;;;;2.10;1.60;;;17.40;43.10;;;;;;5045307;28;20857;-59
2023/12/05 11:12:08;;;;;;;2.73;1.47;;;17.50;42.80;;;;;;5039232;28;20561;-58
2023/12/05 11:14:41;;;;;;;2.00;1.50;;;17.30;43.60;;;;;;5044135;28;20428;-58
2023/12/05 11:17:12;;;;;;;1.87;1.37;;;17.20;43.10;;;;;;5046772;28;20439;-57
2023/12/05 11:20:00;;;;;;;2.77;1.57;;;16.70;44.10;;;;;;5047930;28;20461;-59
2023/12/05 11:22:55;;;;;;;1.90;1.70;;;16.60;44.60;;;;;;5042515;28;20534;-58
2023/12/05 11:25:32;;;;;;;1.60;1.50;;;16.70;44.80;;;;;;5046589;28;20435;-58
2023/12/05 11:28:09;;;;;;;2.27;1.33;;;16.50;44.90;;;;;;5041507;28;20449;-56
2023/12/05 11:30:47;;;;;;;4.67;1.63;;;16.50;45.10;;;;;;5044914;28;21097;-57
2023/12/05 11:33:26;;;;;;;1.63;1.43;;;16.50;44.60;;;;;;5045933;28;20443;-56
2023/12/05 11:36:12;;;;;;;2.83;1.63;;;16.50;44.90;;;;;;5036910;28;20443;-55
2023/12/05 11:38:39;;;;;;;1.93;1.50;;;16.30;44.90;;;;;;5044219;28;20474;-56
2023/12/05 11:41:12;;;;;;;1.40;1.13;;;16.10;45.60;;;;;;5047067;28;20815;-56
2023/12/05 11:43:38;;;;;;;1.70;1.10;;;16.10;45.60;;;;;;5045760;28;20445;-54
2023/12/05 11:46:04;;;;;;;2.70;1.00;;;16.20;45.50;;;;;;5044340;28;20479;-55
2023/12/05 11:48:33;;;;;;;2.33;1.30;;;16.30;45.30;;;;;;5043088;28;20856;-56
2023/12/05 11:50:59;;;;;;;1.87;1.23;;;16.20;45.60;;;;;;5046632;28;20475;-54
2023/12/05 11:53:25;;;;;;;1.63;1.40;;;16.10;45.50;;;;;;5048952;28;20942;-54
2023/12/05 11:55:51;;;;;;;1.87;1.23;;;16.20;45.50;;;;;;5047700;28;20447;-55
2023/12/05 11:58:34;;;;;;;2.47;1.87;;;16.00;45.30;;;;;;5045592;28;20189;-56
2023/12/05 12:01:07;;;;;;;1.87;1.40;;;16.10;45.70;;;;;;5039958;28;20200;-55
2023/12/05 12:03:42;;;;;;;1.57;1.17;;;16.10;45.60;;;;;;5042693;28;21261;-56
2023/12/05 12:06:09;;;;;;;1.70;1.60;;;16.10;45.50;;;;;;5041418;28;20576;-55
2023/12/05 12:08:35;;;;;;;7.90;1.53;;;16.10;45.10;;;;;;5038354;28;20447;-56
2023/12/05 12:11:01;;;;;;;4.63;1.27;;;15.60;45.30;;;;;;5044010;28;20490;-58
2023/12/05 12:13:27;;;;;;;3.93;1.37;;;15.70;46.00;;;;;;5040612;28;20447;-53
2023/12/05 12:15:53;;;;;;;1.23;0.80;;;15.80;46.10;;;;;;5039565;28;21156;-58
2023/12/05 12:18:26;;;;;;;1.30;0.90;;;15.80;45.60;;;;;;5041747;28;20203;-58
2023/12/05 12:20:52;;;;;;;1.73;1.00;;;15.90;45.80;;;;;;5037726;28;20815;-55
2023/12/05 12:23:21;;;;;;;1.20;1.00;;;15.20;45.10;;;;;;5045252;28;20518;-55
2023/12/05 12:25:57;;;;;;;1.03;0.90;;;14.80;46.70;;;;;;5047723;28;20270;-55
2023/12/05 12:28:33;;;;;;;1.10;1.00;;;14.70;47.30;;;;;;5046106;28;20439;-57
2023/12/05 12:30:59;;;;;;;1.73;0.77;;;14.90;47.70;;;;;;5040560;28;21104;-54
2023/12/05 12:33:38;;;;;;;1.30;1.00;;;15.10;47.30;;;;;;5039342;28;20440;-54
2023/12/05 12:36:04;;;;;;;2.50;1.20;;;15.30;46.90;;;;;;5041071;28;20447;-54
2023/12/05 12:38:32;;;;;;;1.87;1.00;;;15.20;46.60;;;;;;5045182;28;20438;-57
2023/12/05 12:40:59;;;;;;;1.67;1.00;;;15.10;46.40;;;;;;5044996;28;20450;-58
2023/12/05 12:43:24;;;;;;;1.50;1.10;;;15.00;46.80;;;;;;5037740;28;20458;-54
2023/12/05 12:45:50;;;;;;;1.87;1.10;;;14.70;46.40;;;;;;5043856;28;20192;-56
2023/12/05 12:48:15;;;;;;;2.63;0.97;;;14.60;47.10;;;;;;5030673;28;20252;-54
2023/12/05 12:50:41;;;;;;;0.80;0.80;;;14.30;47.80;;;;;;5044678;28;20277;-56